createdAt,value
2022-12-16T00:01:59.613Z,22.33
2022-12-16T00:04:27.558Z,22.50
2022-12-16T00:06:55.525Z,22.08
2022-12-16T00:09:23.585Z,21.98
2022-12-16T00:11:51.551Z,21.70
2022-12-16T00:14:21.137Z,22.33
2022-12-16T00:16:49.331Z,21.20
2022-12-16T00:19:18.425Z,22.08
2022-12-16T00:21:46.302Z,20.63
2022-12-16T00:24:14.269Z,20.67
2022-12-16T00:26:42.149Z,21.38
2022-12-16T00:29:11.075Z,22.42
2022-12-16T00:31:40.594Z,21.63
2022-12-16T00:34:08.584Z,21.40
2022-12-16T00:36:36.469Z,22.80
2022-12-16T00:39:04.844Z,21.80
2022-12-16T00:41:32.758Z,22.73
2022-12-16T00:44:00.699Z,22.83
2022-12-16T00:46:28.539Z,21.52
2022-12-16T00:48:57.852Z,23.35
2022-12-16T00:51:25.747Z,21.45
2022-12-16T00:53:53.705Z,22.45
2022-12-16T00:56:22.121Z,24.35
2022-12-16T00:58:50.487Z,21.02
2022-12-16T01:01:18.499Z,22.80
2022-12-16T01:03:46.602Z,23.23
2022-12-16T01:06:18.065Z,23.42
2022-12-16T01:08:48.763Z,24.10
2022-12-16T01:11:18.044Z,23.08
2022-12-16T01:13:46.324Z,22.67
2022-12-16T01:16:15.378Z,23.60
2022-12-16T01:18:43.343Z,23.23
2022-12-16T01:21:14.121Z,24.75
2022-12-16T01:23:43.522Z,22.98
2022-12-16T01:26:16.812Z,23.90
2022-12-16T01:28:44.806Z,22.75
2022-12-16T01:31:13.025Z,25.15
2022-12-16T01:33:40.964Z,24.45
2022-12-16T01:36:09.862Z,24.40
2022-12-16T01:38:37.947Z,22.88
2022-12-16T01:41:07.251Z,21.98
2022-12-16T01:43:38.531Z,22.30
2022-12-16T01:46:10.327Z,22.55
2022-12-16T01:48:45.745Z,22.58
2022-12-16T01:51:19.561Z,21.33
2022-12-16T01:56:41.413Z,23.75
2022-12-16T01:59:10.133Z,22.55
2022-12-16T02:01:38.133Z,23.40
2022-12-16T02:04:06.200Z,22.05
2022-12-16T02:06:34.609Z,22.35
2022-12-16T02:09:07.115Z,20.73
2022-12-16T02:15:10.375Z,21.35
2022-12-16T02:17:46.724Z,22.00
2022-12-16T02:20:56.312Z,24.40
2022-12-16T02:23:55.333Z,22.35
2022-12-16T02:26:50.475Z,22.92
2022-12-16T02:29:41.693Z,21.70
2022-12-16T02:32:18.248Z,23.05
2022-12-16T02:34:55.492Z,21.05
2022-12-16T02:37:37.598Z,22.00
2022-12-16T02:40:12.514Z,20.65
2022-12-16T02:42:46.382Z,22.27
2022-12-16T02:48:05.439Z,22.88
2022-12-16T02:50:36.802Z,19.77
2022-12-16T02:53:06.223Z,21.60
2022-12-16T02:55:41.287Z,22.15
2022-12-16T02:58:18.835Z,20.98
2022-12-16T03:03:48.032Z,21.85
2022-12-16T03:06:18.942Z,22.60
2022-12-16T03:08:52.499Z,22.85
2022-12-16T03:11:20.866Z,23.08
2022-12-16T03:13:52.711Z,22.00
2022-12-16T03:16:24.074Z,22.98
2022-12-16T03:21:47.837Z,23.55
2022-12-16T03:24:16.259Z,21.38
2022-12-16T03:26:50.530Z,23.45
2022-12-16T03:29:25.418Z,21.80
2022-12-16T03:31:58.294Z,22.05
2022-12-16T03:37:26.433Z,21.95
2022-12-16T03:39:58.975Z,22.20
2022-12-16T03:42:27.865Z,21.95
2022-12-16T03:44:55.864Z,22.95
2022-12-16T03:47:26.373Z,20.08
2022-12-16T03:49:55.748Z,22.88
2022-12-16T03:55:09.888Z,21.05
2022-12-16T03:57:37.946Z,21.55
2022-12-16T04:00:07.025Z,22.25
2022-12-16T04:02:36.456Z,22.30
2022-12-16T04:05:06.559Z,21.95
2022-12-16T04:10:41.551Z,21.38
2022-12-16T04:13:28.224Z,21.77
2022-12-16T04:16:14.086Z,20.95
2022-12-16T04:19:00.347Z,21.60
2022-12-16T04:21:49.438Z,20.60
2022-12-16T04:27:23.939Z,22.92
2022-12-16T04:30:05.758Z,21.23
2022-12-16T04:32:54.362Z,20.58
2022-12-16T04:35:39.069Z,22.30
2022-12-16T04:38:26.023Z,23.20
2022-12-16T04:44:14.750Z,20.48
2022-12-16T04:47:00.176Z,19.65
2022-12-16T04:49:45.797Z,20.42
2022-12-16T04:52:31.743Z,21.95
2022-12-16T04:55:18.630Z,23.02
2022-12-16T05:01:10.373Z,19.85
2022-12-16T05:03:55.679Z,21.38
2022-12-16T05:06:41.349Z,21.38
2022-12-16T05:09:27.244Z,21.58
2022-12-16T05:12:13.864Z,19.52
2022-12-16T05:14:59.474Z,20.23
2022-12-16T05:17:44.879Z,20.23
2022-12-16T05:20:41.997Z,20.60
2022-12-16T05:23:29.759Z,21.88
2022-12-16T05:26:15.468Z,21.35
2022-12-16T05:29:02.407Z,21.13
2022-12-16T05:34:51.493Z,21.55
2022-12-16T05:37:37.068Z,20.30
2022-12-16T05:40:23.551Z,20.23
2022-12-16T05:43:14.923Z,19.73
2022-12-16T05:46:03.799Z,21.02
2022-12-16T05:48:49.760Z,18.95
2022-12-16T05:51:35.523Z,19.20
2022-12-16T05:54:20.813Z,19.48
2022-12-16T05:57:07.540Z,20.52
2022-12-16T05:59:53.011Z,18.67
2022-12-16T06:02:40.350Z,20.35
2022-12-16T06:05:26.394Z,19.08
2022-12-16T06:08:12.035Z,19.67
2022-12-16T06:10:57.579Z,21.50
2022-12-16T06:13:43.161Z,20.02
2022-12-16T06:16:28.719Z,20.20
2022-12-16T06:19:15.459Z,18.67
2022-12-16T06:22:00.836Z,19.25
2022-12-16T06:24:46.154Z,22.52
2022-12-16T06:27:31.482Z,22.17
2022-12-16T06:30:16.917Z,21.38
2022-12-16T06:33:02.715Z,21.52
2022-12-16T06:35:49.442Z,20.23
2022-12-16T06:38:34.673Z,22.00
2022-12-16T06:41:20.232Z,21.75
2022-12-16T06:44:05.762Z,20.63
2022-12-16T06:46:51.548Z,20.83
2022-12-16T06:49:36.811Z,20.35
2022-12-16T06:52:23.499Z,20.92
2022-12-16T06:55:09.200Z,20.40
2022-12-16T06:57:54.786Z,20.63
2022-12-16T07:00:40.438Z,21.05
2022-12-16T07:03:25.703Z,21.23
2022-12-16T07:06:11.862Z,21.23
2022-12-16T07:08:58.526Z,21.30
2022-12-16T07:11:44.055Z,20.73
2022-12-16T07:14:29.330Z,23.65
2022-12-16T07:17:17.243Z,22.20
2022-12-16T07:20:03.009Z,21.95
2022-12-16T07:22:52.232Z,20.48
2022-12-16T07:25:48.048Z,21.63
2022-12-16T07:28:44.918Z,21.17
2022-12-16T07:31:30.635Z,22.40
2022-12-16T07:34:16.157Z,22.95
2022-12-16T07:37:01.598Z,21.65
2022-12-16T07:39:52.797Z,21.85
2022-12-16T07:42:41.840Z,20.92
2022-12-16T07:45:28.417Z,23.25
2022-12-16T07:48:14.515Z,22.30
2022-12-16T07:51:00.115Z,21.23
2022-12-16T07:53:46.328Z,20.60
2022-12-16T07:56:31.873Z,22.70
2022-12-16T07:59:18.564Z,22.55
2022-12-16T08:02:04.189Z,22.52
2022-12-16T08:04:49.536Z,22.20
2022-12-16T08:07:35.143Z,23.40
2022-12-16T08:10:20.675Z,22.58
2022-12-16T08:13:06.142Z,21.95
2022-12-16T08:15:52.977Z,21.50
2022-12-16T08:18:38.398Z,24.23
2022-12-16T08:21:32.330Z,20.98
2022-12-16T08:24:17.592Z,22.05
2022-12-16T08:27:02.771Z,21.90
2022-12-16T08:29:48.258Z,21.60
2022-12-16T08:32:31.944Z,20.33
2022-12-16T08:35:19.521Z,21.35
2022-12-16T08:38:09.005Z,20.48
2022-12-16T08:41:00.191Z,22.33
2022-12-16T08:43:45.902Z,22.38
2022-12-16T08:46:31.586Z,21.17
2022-12-16T08:49:18.400Z,23.10
2022-12-16T08:52:03.748Z,22.08
2022-12-16T08:54:49.469Z,22.48
2022-12-16T08:57:35.729Z,21.65
2022-12-16T09:00:22.310Z,21.23
2022-12-16T09:03:11.733Z,25.35
2022-12-16T09:05:58.934Z,23.00
2022-12-16T09:08:44.207Z,24.50
2022-12-16T09:11:29.717Z,23.73
2022-12-16T09:14:15.390Z,23.58
2022-12-16T09:17:00.814Z,27.02
2022-12-16T09:19:46.260Z,22.77
2022-12-16T09:22:33.035Z,23.50
2022-12-16T09:25:18.445Z,22.80
2022-12-16T09:28:06.971Z,22.90
2022-12-16T09:30:52.693Z,24.60
2022-12-16T09:33:38.041Z,24.13
2022-12-16T09:36:23.836Z,24.27
2022-12-16T09:39:10.534Z,24.83
2022-12-16T09:42:01.090Z,23.73
2022-12-16T09:45:01.889Z,22.90
2022-12-16T09:48:03.216Z,22.42
2022-12-16T09:50:50.096Z,22.83
2022-12-16T09:53:40.138Z,23.45
2022-12-16T09:56:37.908Z,24.25
2022-12-16T09:59:29.851Z,23.42
2022-12-16T10:02:15.684Z,24.30
2022-12-16T10:05:03.116Z,25.53
2022-12-16T10:07:54.530Z,24.53
2022-12-16T10:10:49.385Z,26.37
2022-12-16T10:13:43.050Z,24.17
2022-12-16T10:16:37.956Z,26.10
2022-12-16T10:19:30.815Z,25.57
2022-12-16T10:22:29.987Z,24.97
2022-12-16T10:25:25.165Z,25.17
2022-12-16T10:28:18.990Z,26.15
2022-12-16T10:31:05.892Z,26.07
2022-12-16T10:33:51.516Z,25.63
2022-12-16T10:36:40.908Z,26.13
2022-12-16T10:39:46.383Z,27.60
2022-12-16T10:42:39.722Z,26.40
2022-12-16T10:45:35.909Z,26.43
2022-12-16T10:48:23.261Z,28.63
2022-12-16T10:51:09.094Z,27.47
2022-12-16T10:53:55.799Z,26.23
2022-12-16T10:57:08.557Z,26.87
2022-12-16T10:59:55.920Z,27.47
2022-12-16T11:02:44.350Z,26.23
2022-12-16T11:05:59.306Z,26.57
2022-12-16T11:08:47.312Z,26.20
2022-12-16T11:11:39.261Z,25.30
2022-12-16T11:14:39.121Z,24.37
2022-12-16T11:17:37.299Z,26.50
2022-12-16T11:20:30.961Z,25.63
2022-12-16T11:23:58.815Z,25.97
2022-12-16T11:26:44.358Z,25.20
2022-12-16T11:29:32.072Z,24.20
2022-12-16T11:32:22.102Z,24.37
2022-12-16T11:35:14.299Z,25.33
2022-12-16T11:38:01.835Z,23.10
2022-12-16T11:40:50.170Z,24.10
2022-12-16T11:43:37.843Z,25.87
2022-12-16T11:46:28.444Z,25.27
2022-12-16T11:49:23.451Z,24.03
2022-12-16T11:52:35.802Z,23.47
2022-12-16T11:56:03.355Z,22.67
2022-12-16T11:58:47.330Z,22.80
2022-12-16T12:01:45.204Z,22.73
2022-12-16T12:04:32.282Z,23.10
2022-12-16T12:07:46.215Z,23.07
2022-12-16T12:11:02.401Z,23.90
2022-12-16T12:14:08.917Z,24.53
2022-12-16T12:17:08.137Z,21.17
2022-12-16T12:20:02.325Z,22.00
2022-12-16T12:22:53.972Z,21.87
2022-12-16T12:25:46.468Z,22.13
2022-12-16T12:28:41.860Z,19.43
2022-12-16T12:31:39.331Z,20.57
2022-12-16T12:34:31.791Z,19.90
2022-12-16T12:37:27.083Z,19.80
2022-12-16T12:40:21.113Z,19.93
2022-12-16T12:43:10.742Z,20.03
2022-12-16T12:46:07.901Z,19.13
2022-12-16T12:49:00.430Z,18.73
2022-12-16T12:51:52.357Z,17.37
2022-12-16T12:54:49.318Z,17.70
2022-12-16T12:57:38.123Z,17.37
2022-12-16T13:00:31.196Z,17.70
2022-12-16T13:03:24.052Z,17.00
2022-12-16T13:06:12.139Z,18.13
2022-12-16T13:09:04.447Z,18.17
2022-12-16T13:11:49.972Z,18.00
2022-12-16T13:15:12.111Z,18.37
2022-12-16T13:18:38.566Z,16.77
2022-12-16T13:22:04.289Z,17.80
2022-12-16T13:24:56.750Z,21.77
2022-12-16T13:27:43.263Z,22.07
2022-12-16T13:30:43.222Z,21.88
2022-12-16T13:33:46.806Z,22.30
2022-12-16T13:36:36.441Z,22.83
2022-12-16T13:39:48.397Z,21.80
2022-12-16T13:42:53.954Z,20.80
2022-12-16T13:45:51.307Z,21.13
2022-12-16T13:48:49.324Z,21.27
2022-12-16T13:52:26.814Z,19.90
2022-12-16T13:55:31.879Z,19.50
2022-12-16T13:58:22.561Z,18.85
2022-12-16T14:01:19.828Z,18.88
2022-12-16T14:04:07.610Z,18.35
2022-12-16T14:06:56.161Z,18.17
2022-12-16T14:09:51.823Z,18.08
2022-12-16T14:13:02.183Z,17.92
2022-12-16T14:15:52.299Z,17.23
2022-12-16T14:18:49.419Z,16.50
2022-12-16T14:21:39.887Z,17.17
2022-12-16T14:24:31.027Z,16.35
2022-12-16T14:27:23.120Z,18.75
2022-12-16T14:30:10.225Z,19.55
2022-12-16T14:32:55.556Z,16.08
2022-12-16T14:35:42.889Z,16.83
2022-12-16T14:38:41.449Z,15.70
2022-12-16T14:41:30.262Z,15.80
2022-12-16T14:44:15.804Z,15.32
2022-12-16T14:47:09.028Z,15.73
2022-12-16T14:49:55.013Z,15.80
2022-12-16T14:52:41.780Z,17.08
2022-12-16T14:55:33.786Z,15.88
2022-12-16T14:58:24.708Z,16.75
2022-12-16T15:01:15.756Z,17.13
2022-12-16T15:04:04.886Z,17.27
2022-12-16T15:06:53.318Z,17.05
2022-12-16T15:09:47.064Z,17.08
2022-12-16T15:12:35.716Z,15.77
2022-12-16T15:15:23.995Z,18.38
2022-12-16T15:18:12.423Z,18.17
2022-12-16T15:21:06.944Z,17.17
2022-12-16T15:24:07.904Z,17.55
2022-12-16T15:26:53.825Z,17.00
2022-12-16T15:29:52.910Z,18.65
2022-12-16T15:32:49.261Z,18.52
2022-12-16T15:35:49.132Z,18.02
2022-12-16T15:38:46.450Z,17.42
2022-12-16T15:41:40.619Z,18.73
2022-12-16T15:44:34.161Z,18.17
2022-12-16T15:47:19.653Z,17.38
2022-12-16T15:50:07.431Z,18.70
2022-12-16T15:52:56.632Z,19.67
2022-12-16T15:55:47.666Z,18.25
2022-12-16T15:58:34.855Z,19.05
2022-12-16T16:01:20.537Z,17.67
2022-12-16T16:04:11.006Z,17.20
2022-12-16T16:06:56.942Z,19.20
2022-12-16T16:09:44.202Z,18.13
2022-12-16T16:12:32.387Z,19.00
2022-12-16T16:15:17.749Z,18.35
2022-12-16T16:18:04.720Z,16.38
2022-12-16T16:20:50.311Z,17.88
2022-12-16T16:23:36.084Z,17.85
2022-12-16T16:26:21.877Z,17.85
2022-12-16T16:29:08.516Z,19.63
2022-12-16T16:31:55.491Z,20.10
2022-12-16T16:34:42.529Z,17.83
2022-12-16T16:37:32.913Z,17.27
2022-12-16T16:40:19.531Z,17.52
2022-12-16T16:43:04.949Z,17.60
2022-12-16T16:45:51.928Z,17.20
2022-12-16T16:48:37.626Z,16.15
2022-12-16T16:51:23.680Z,16.40
2022-12-16T16:54:09.213Z,15.43
2022-12-16T16:56:56.597Z,14.95
2022-12-16T16:59:42.533Z,15.82
2022-12-16T17:02:40.562Z,15.25
2022-12-16T17:05:29.685Z,15.70
2022-12-16T17:08:16.207Z,15.55
2022-12-16T17:11:01.848Z,15.80
2022-12-16T17:13:47.495Z,15.10
2022-12-16T17:16:33.668Z,17.38
2022-12-16T17:19:21.587Z,15.57
2022-12-16T17:22:07.099Z,15.65
2022-12-16T17:24:55.003Z,16.63
2022-12-16T17:27:42.476Z,15.80
2022-12-16T17:30:33.996Z,16.48
2022-12-16T17:33:19.218Z,15.75
2022-12-16T17:36:09.046Z,17.38
2022-12-16T17:38:58.278Z,15.90
2022-12-16T17:41:43.816Z,18.02
2022-12-16T17:44:29.368Z,17.48
2022-12-16T17:47:14.788Z,17.17
2022-12-16T17:50:00.399Z,17.58
2022-12-16T17:52:47.080Z,18.40
2022-12-16T17:55:33.118Z,17.75
2022-12-16T17:58:18.590Z,17.02
2022-12-16T18:01:04.066Z,16.83
2022-12-16T18:04:04.117Z,18.50
2022-12-16T18:06:49.591Z,17.40
2022-12-16T18:09:36.224Z,17.73
2022-12-16T18:12:21.770Z,17.20
2022-12-16T18:15:07.468Z,16.17
2022-12-16T18:17:52.949Z,17.75
2022-12-16T18:20:38.663Z,18.63
2022-12-16T18:23:24.374Z,17.20
2022-12-16T18:26:18.633Z,18.27
2022-12-16T18:29:12.568Z,16.55
2022-12-16T18:32:01.778Z,17.83
2022-12-16T18:34:47.227Z,16.88
2022-12-16T18:37:32.721Z,16.52
2022-12-16T18:40:18.224Z,17.85
2022-12-16T18:43:10.247Z,16.15
2022-12-16T18:45:55.948Z,17.60
2022-12-16T18:48:41.313Z,17.63
2022-12-16T18:51:26.641Z,16.20
2022-12-16T18:54:12.149Z,17.20
2022-12-16T18:56:57.806Z,16.73
2022-12-16T18:59:44.456Z,16.15
2022-12-16T19:02:30.638Z,17.67
2022-12-16T19:05:15.988Z,17.10
2022-12-16T19:08:01.677Z,18.30
2022-12-16T19:10:47.196Z,18.42
2022-12-16T19:13:33.180Z,18.15
2022-12-16T19:16:23.265Z,18.63
2022-12-16T19:19:09.143Z,19.00
2022-12-16T19:21:56.365Z,19.90
2022-12-16T19:24:42.554Z,18.95
2022-12-16T19:27:27.942Z,20.30
2022-12-16T19:30:13.557Z,18.08
2022-12-16T19:33:00.251Z,18.95
2022-12-16T19:35:45.868Z,18.42
2022-12-16T19:38:31.497Z,19.60
2022-12-16T19:44:17.313Z,19.67
2022-12-16T19:47:02.889Z,21.10
2022-12-16T19:49:49.638Z,19.77
2022-12-16T19:52:35.167Z,18.50
2022-12-16T19:55:20.799Z,20.38
2022-12-16T19:58:06.229Z,19.88
2022-12-16T20:00:51.641Z,19.80
2022-12-16T20:03:38.069Z,20.02
2022-12-16T20:06:27.090Z,17.38
2022-12-16T20:09:14.786Z,19.88
2022-12-16T20:12:01.396Z,19.52
2022-12-16T20:14:47.399Z,19.08
2022-12-16T20:17:32.789Z,19.23
2022-12-16T20:20:18.415Z,20.35
2022-12-16T20:23:05.255Z,19.00
2022-12-16T20:25:50.775Z,19.75
2022-12-16T20:28:37.340Z,20.75
2022-12-16T20:31:23.281Z,20.08
2022-12-16T20:34:11.876Z,20.70
2022-12-16T20:36:57.418Z,19.83
2022-12-16T20:39:49.487Z,19.60
2022-12-16T20:42:38.370Z,19.58
2022-12-16T20:45:24.302Z,20.20
2022-12-16T20:48:11.523Z,18.73
2022-12-16T20:50:56.998Z,19.63
2022-12-16T20:53:42.989Z,20.10
2022-12-16T20:56:29.911Z,18.90
2022-12-16T20:59:15.445Z,20.02
2022-12-16T21:05:06.487Z,17.98
2022-12-16T21:07:52.862Z,18.42
2022-12-16T21:10:38.903Z,17.73
2022-12-16T21:13:26.774Z,17.63
2022-12-16T21:14:42.734Z,19.42
2022-12-16T21:16:12.182Z,18.33
2022-12-16T21:18:57.696Z,19.00
2022-12-16T21:21:43.087Z,18.15
2022-12-16T21:24:28.802Z,17.73
2022-12-16T21:27:14.421Z,18.25
2022-12-16T21:30:01.095Z,17.42
2022-12-16T21:32:46.586Z,18.25
2022-12-16T21:35:28.608Z,17.55
2022-12-16T21:38:14.163Z,17.38
2022-12-16T21:40:59.632Z,17.85
2022-12-16T21:43:45.176Z,18.20
2022-12-16T21:46:31.855Z,18.50
2022-12-16T21:49:20.722Z,16.98
2022-12-16T21:52:06.332Z,15.50
2022-12-16T21:54:51.950Z,16.35
2022-12-16T21:57:37.365Z,17.38
2022-12-16T22:00:24.470Z,16.48
2022-12-16T22:03:13.796Z,17.33
2022-12-16T22:06:04.521Z,20.17
2022-12-16T22:08:50.157Z,21.75
2022-12-16T22:11:35.744Z,20.88
2022-12-16T22:14:21.289Z,21.67
2022-12-16T22:17:06.670Z,24.17
2022-12-16T22:19:53.365Z,22.13
2022-12-16T22:22:41.937Z,21.98
2022-12-16T22:25:42.415Z,23.58
2022-12-16T22:28:27.979Z,23.17
2022-12-16T22:31:16.092Z,20.60
2022-12-16T22:34:01.958Z,23.00
2022-12-16T22:36:48.666Z,22.75
2022-12-16T22:39:34.131Z,22.85
2022-12-16T22:42:19.691Z,21.65
2022-12-16T22:45:05.248Z,24.05
2022-12-16T22:47:50.614Z,21.60
2022-12-16T22:50:37.106Z,22.70
2022-12-16T22:53:23.998Z,22.95
2022-12-16T22:56:09.961Z,22.67
2022-12-16T22:58:55.576Z,23.08
2022-12-16T23:01:41.528Z,22.73
2022-12-16T23:04:27.539Z,22.38
2022-12-16T23:07:13.342Z,20.75
2022-12-16T23:10:11.513Z,20.77
2022-12-16T23:12:57.138Z,20.58
2022-12-16T23:15:42.577Z,20.35
2022-12-16T23:18:28.286Z,20.30
2022-12-16T23:21:13.790Z,20.35
2022-12-16T23:23:59.327Z,18.85
2022-12-16T23:26:46.288Z,18.88
2022-12-16T23:29:31.811Z,19.60
2022-12-16T23:32:17.523Z,18.83
2022-12-16T23:35:03.047Z,19.42
2022-12-16T23:37:48.575Z,20.92
2022-12-16T23:40:34.253Z,20.08
2022-12-16T23:43:21.122Z,19.20
2022-12-16T23:46:06.738Z,19.92
2022-12-16T23:48:52.068Z,19.00
2022-12-16T23:51:37.566Z,19.02
2022-12-16T23:54:23.423Z,19.70
2022-12-16T23:57:09.050Z,18.70
2022-12-16T23:59:56.673Z,18.13
